JRB weather

Downtown-Manhattan/Wall St Heliport
New York, New York, United States

Public forecast

Using degrees Fahrenheit for public forecast. Weather courtesy of forecast.io.

Closest aviation weather report (METAR) to Downtown-Manhattan/Wall St Heliport

Closest report is Newark Liberty International Airport, 7.3 nm (13.5 km) W. Retrieved 2020/05/31 21:51 UTC (56 minutes ago):

KEWR 312151Z 33016G26KT 10SM SCT085 21/M01 A3006 RMK AO2 PK WND 35026/2144 SLP179 T02061006

Closest aviation forecast (TAF) to Downtown-Manhattan/Wall St Heliport

Closest forecast is Newark Liberty International Airport, 7.3 nm (13.5 km) W. Retrieved 2020/05/31 18:33 UTC (4 hours ago):

TAF KEWR 311730Z 3118/0124 32011G20KT P6SM SCT060 FM010400 33008KT P6SM SKC FM010900 VRB04KT P6SM SKC FM011300 30008KT P6SM FEW060